Airfield :
LOGIN :

Register | Disclaimer

   EN    FR    IT 

 










Legend :    VFR   Marginal VFR   IFR   Intensive IFR   Very Intensive IFR
Visi :
Ceiling :
>= 8 km
>= 3000ft
5 to 8 km
1000 to 3000 ft
1500m to 5 km
500 to 1000 ft
800 to 1500m
200 to 500 ft
< 800m
< 200 ft
Symbols :   Thunderstorms  Fog  Heavy snow  Heavy precipitations  Wind > 20 kt
SIGMETs :     Misc.  Thunderstorms  Icing  Turbulence  Mountain Waves  Volcanic Ashes







- Airport Elevation : 587 ft
- IATA code : XCR
- Download approach charts


LFOK - Chalons Vatry

CURRENT METAR :
  • 230730Z AUTO 25004KT 4800 BR NSC 01/01 Q1032 BECMG 9999 NSW

EXPIRED METARs :
  • 230700Z AUTO 23003KT 1600 1100 R10/1500U R28/1500U BR NSC 01/01 Q1032 BECMG 9999 NSW
  • 230630Z AUTO VRB03KT 3000 0500 R10/0650D R28/P2000 BCFG NSC 01/01 Q1032 BECMG 9999 NSW
  • 230600Z AUTO 32005KT 5000 BR FEW005 03/03 Q1032 NOSIG
  • 230530Z AUTO 32005KT 0800 0650 R10/1400U R28/0550D FG FEW004 03/02 Q1032 BECMG 25010KT 9999 NSW
  • 230500Z AUTO 29002KT 2200 0450 R10/0550D R28/1400D BCFG FEW005 03/03 Q1032 TEMPO 0500 BCFG

TAF TAF LFOK
Valid from the 23 at 06:00 until the 24 at 06:00 UTC


230500Z 2306/2406 VRB02KT 4000 BR NSC
BECMG 2307/2309 27010KT CAVOK
BECMG 2402/2404 4000 BR BKN013
No reported NOTAMs for that airfield.



MET'MAP, your aeronautical weather chart ! - Copyright ORBIFLY December 2007 - Disclaimer

ORBIFLY MET'MAP TEAM :

Programming & Development : Alexandra Zaïnal
Concept & Development : Baudouin d'Aumeries
Co-Development & Prog : Marc-Olivier Méhu
Technical & hardware support : Manuel Goepfert

Contact : metmap@orbifly.com




SOURCES & CREDITS :

   NOAA